Open Full Screen Window  High Contrast Mode
Wind Gusting 00 knots
03
July 29, 2014 2:37 AM EDT
Weather Information
Wind Direction
  320 °
Wind Speed
  03 kt (3 mph)
Wind Gust
  00 kt (0 mph)
Altimeter
30.01 in
Visibility
10 SM
Temperature
14° C
57° F
Dewpoint
11° C
52° F
Humidity
82%
1hr Rain Fall
00.00 in.
24hr Rain Fall
00.00 in.
Sky Condition
Clear
VFR

METAR KI69 290637Z AUTO 32003KT 10SM CLR 14/11 A3001 RMK AO1

*Background is not an actual portrayal of the airport.